Portada
METAR-TAF:

METAR-TAF

Aeroports :

Bangkok, Tailàndia

latitud: 13-54-45N, longitud: 100-36-24E, altitud: 4 m

Observació

L'informe es va fer fa 15 minuts, a les 18:30 UTC
Vent 8 kt del Sud, variant entre Sud-Est i Sud/Sud-Oest
Temperatura 31°C
Humitat 79%
Pressió 1007 hPa
Visibilitat 10 km o més
Escasses núvols a una alçada de 2000 ft

METAR: VTBD 181830Z 18008KT 140V210 9999 FEW020 31/27 Q1007 NOSIG

Hora: 01:45 (18:45 UTC)

Pronòstic

L'informe es va fer fa 1 hora i 45 minuts, a les 17:00 UTC
Pronòstic vàlid del 18 a les 18 UTC al 19 a les 24 UTC
Vent 10 kt del Sud
Visibilitat 10 km o més
Escasses núvols a una alçada de 2500 ft

TAF: VTBD 181700Z 1818/1924 19010KT 9999 FEW025

Observacions i pronòstics meteorològics de més de 4000 aeroports (METAR i TAF).

Les estacions disponibles són els punts grocs i vermells al mapa.

Posi el ratolí al punt desitjat per veure el nom de l'estació.

Feu clic per veure les observacions i els pronòstics meteorològics.

Per canviar el mapa: feu clic els botons verds amb una creu de color negre per apropar; al botó verd amb un guió per allunyar la imatge; o en les fletxes verdes per a mapes adjacents.


METAR-TAF: